Laurentides, Canada
Current Conditions -  °F | °C
As of 7:00 AM on Friday 31 Oct 2014 (Local Time) from CYMX Reporting Station
Broken Clouds Broken Clouds  
Wind Chill: 32°   Ceiling: 24000
Heat Index: 32°   Visibility: 25mi
Dew Point: 28°   Wind: 2mph
Humidity: 87%   Direction: 110°ESE
Pressure: 30.06"   Gusts: NA
Location:  45.85°N, 73.77°W
Report Text: CYMX 311100Z 11002KT 25SM FEW040 SCT100 BKN240 00/M02 A3006 RMK SC1AC3CI3 SLP181
Loading
Personal Weather Stations






























Interactive Weather Map
Tropical Storm Tracking
New forecast layout! Learn more

10-Day Weather Forecast

Advertisements
Track Severe Weather on mobile